sensor_id;sensor_type;location;lat;lon;timestamp;temperature;humidity
20081;DHT22;10200;49.232;9.222;2023-03-26T00:01:25;9.50;99.90
20081;DHT22;10200;49.232;9.222;2023-03-26T00:03:52;9.60;99.90
20081;DHT22;10200;49.232;9.222;2023-03-26T00:06:20;9.60;99.90
20081;DHT22;10200;49.232;9.222;2023-03-26T00:08:48;9.60;99.90
20081;DHT22;10200;49.232;9.222;2023-03-26T00:11:15;9.70;99.90
20081;DHT22;10200;49.232;9.222;2023-03-26T00:13:42;9.70;99.90
20081;DHT22;10200;49.232;9.222;2023-03-26T00:16:13;9.70;99.90
20081;DHT22;10200;49.232;9.222;2023-03-26T00:18:40;9.80;99.90
20081;DHT22;10200;49.232;9.222;2023-03-26T00:21:08;9.80;99.90
20081;DHT22;10200;49.232;9.222;2023-03-26T00:23:35;9.70;99.90
20081;DHT22;10200;49.232;9.222;2023-03-26T00:26:02;9.70;99.90
20081;DHT22;10200;49.232;9.222;2023-03-26T00:28:28;9.70;99.90
20081;DHT22;10200;49.232;9.222;2023-03-26T00:31:00;9.70;99.90
20081;DHT22;10200;49.232;9.222;2023-03-26T00:33:27;9.60;99.90
20081;DHT22;10200;49.232;9.222;2023-03-26T00:35:54;9.60;99.90
20081;DHT22;10200;49.232;9.222;2023-03-26T00:38:21;9.60;99.90
20081;DHT22;10200;49.232;9.222;2023-03-26T00:40:49;9.60;99.90
20081;DHT22;10200;49.232;9.222;2023-03-26T00:43:16;9.60;99.90
20081;DHT22;10200;49.232;9.222;2023-03-26T00:45:51;9.60;99.90
20081;DHT22;10200;49.232;9.222;2023-03-26T00:48:17;9.60;99.90
20081;DHT22;10200;49.232;9.222;2023-03-26T00:50:44;9.70;99.90
20081;DHT22;10200;49.232;9.222;2023-03-26T00:53:11;9.70;99.90
20081;DHT22;10200;49.232;9.222;2023-03-26T00:55:42;9.70;99.90
20081;DHT22;10200;49.232;9.222;2023-03-26T00:58:08;9.70;99.90
20081;DHT22;10200;49.232;9.222;2023-03-26T01:00:36;9.70;99.90
20081;DHT22;10200;49.232;9.222;2023-03-26T01:03:05;9.70;99.90
20081;DHT22;10200;49.232;9.222;2023-03-26T01:13:47;9.50;99.90
20081;DHT22;10200;49.232;9.222;2023-03-26T01:16:35;9.50;99.90
20081;DHT22;10200;49.232;9.222;2023-03-26T01:19:16;9.40;99.90
20081;DHT22;10200;49.232;9.222;2023-03-26T01:21:44;9.40;99.90
20081;DHT22;10200;49.232;9.222;2023-03-26T01:24:11;9.30;99.90
20081;DHT22;10200;49.232;9.222;2023-03-26T01:29:31;9.20;99.90
20081;DHT22;10200;49.232;9.222;2023-03-26T01:40:23;9.00;99.90
20081;DHT22;10200;49.232;9.222;2023-03-26T01:43:04;9.00;99.90
20081;DHT22;10200;49.232;9.222;2023-03-26T01:45:33;9.00;99.90
20081;DHT22;10200;49.232;9.222;2023-03-26T01:48:00;8.90;99.90
20081;DHT22;10200;49.232;9.222;2023-03-26T01:50:26;8.90;99.90
20081;DHT22;10200;49.232;9.222;2023-03-26T01:52:52;8.80;99.90
20081;DHT22;10200;49.232;9.222;2023-03-26T01:55:17;8.80;99.90
20081;DHT22;10200;49.232;9.222;2023-03-26T02:00:44;8.80;99.90
20081;DHT22;10200;49.232;9.222;2023-03-26T02:03:29;8.80;99.90
20081;DHT22;10200;49.232;9.222;2023-03-26T02:08:55;8.70;99.90
20081;DHT22;10200;49.232;9.222;2023-03-26T02:11:19;8.70;99.90
20081;DHT22;10200;49.232;9.222;2023-03-26T02:13:46;8.70;99.90
20081;DHT22;10200;49.232;9.222;2023-03-26T02:16:14;8.70;99.90
20081;DHT22;10200;49.232;9.222;2023-03-26T02:18:44;8.70;99.90
20081;DHT22;10200;49.232;9.222;2023-03-26T02:21:13;8.80;99.90
20081;DHT22;10200;49.232;9.222;2023-03-26T02:23:41;8.70;99.90
20081;DHT22;10200;49.232;9.222;2023-03-26T02:26:13;8.70;99.90
20081;DHT22;10200;49.232;9.222;2023-03-26T02:28:40;8.70;99.90
20081;DHT22;10200;49.232;9.222;2023-03-26T02:31:06;8.80;99.90
20081;DHT22;10200;49.232;9.222;2023-03-26T02:33:35;8.70;99.90
20081;DHT22;10200;49.232;9.222;2023-03-26T02:36:02;8.70;99.90
20081;DHT22;10200;49.232;9.222;2023-03-26T02:38:29;8.70;99.90
20081;DHT22;10200;49.232;9.222;2023-03-26T02:40:58;8.70;99.90
20081;DHT22;10200;49.232;9.222;2023-03-26T02:43:24;8.60;99.90
20081;DHT22;10200;49.232;9.222;2023-03-26T02:45:50;8.60;99.90
20081;DHT22;10200;49.232;9.222;2023-03-26T02:48:15;8.60;99.90
20081;DHT22;10200;49.232;9.222;2023-03-26T02:50:42;8.60;99.90
20081;DHT22;10200;49.232;9.222;2023-03-26T02:53:07;8.50;99.90
20081;DHT22;10200;49.232;9.222;2023-03-26T02:55:33;8.50;99.90
20081;DHT22;10200;49.232;9.222;2023-03-26T02:57:59;8.40;99.90
20081;DHT22;10200;49.232;9.222;2023-03-26T03:00:25;8.40;99.90
20081;DHT22;10200;49.232;9.222;2023-03-26T03:02:51;8.40;99.90
20081;DHT22;10200;49.232;9.222;2023-03-26T03:05:22;8.40;99.90
20081;DHT22;10200;49.232;9.222;2023-03-26T03:07:51;8.30;99.90
20081;DHT22;10200;49.232;9.222;2023-03-26T03:10:17;8.30;99.90
20081;DHT22;10200;49.232;9.222;2023-03-26T03:12:46;8.30;99.90
20081;DHT22;10200;49.232;9.222;2023-03-26T03:15:12;8.20;99.90
20081;DHT22;10200;49.232;9.222;2023-03-26T03:17:38;8.20;99.90
20081;DHT22;10200;49.232;9.222;2023-03-26T03:20:05;8.20;99.90
20081;DHT22;10200;49.232;9.222;2023-03-26T03:22:35;8.20;99.90
20081;DHT22;10200;49.232;9.222;2023-03-26T03:25:02;8.20;99.90
20081;DHT22;10200;49.232;9.222;2023-03-26T03:27:28;8.10;99.90
20081;DHT22;10200;49.232;9.222;2023-03-26T03:29:53;8.20;99.90
20081;DHT22;10200;49.232;9.222;2023-03-26T03:32:23;8.20;99.90
20081;DHT22;10200;49.232;9.222;2023-03-26T03:34:48;8.20;99.90
20081;DHT22;10200;49.232;9.222;2023-03-26T03:37:16;8.20;99.90
20081;DHT22;10200;49.232;9.222;2023-03-26T03:39:42;8.30;99.90
20081;DHT22;10200;49.232;9.222;2023-03-26T03:42:07;8.30;99.90
20081;DHT22;10200;49.232;9.222;2023-03-26T03:44:33;8.30;99.90
20081;DHT22;10200;49.232;9.222;2023-03-26T03:46:58;8.30;99.90
20081;DHT22;10200;49.232;9.222;2023-03-26T03:49:24;8.40;99.90
20081;DHT22;10200;49.232;9.222;2023-03-26T03:51:49;8.30;99.90
20081;DHT22;10200;49.232;9.222;2023-03-26T03:54:15;8.40;99.90
20081;DHT22;10200;49.232;9.222;2023-03-26T03:56:41;8.30;99.90
20081;DHT22;10200;49.232;9.222;2023-03-26T03:59:06;8.30;99.90
20081;DHT22;10200;49.232;9.222;2023-03-26T04:01:33;8.30;99.90
20081;DHT22;10200;49.232;9.222;2023-03-26T04:03:59;8.20;99.90
20081;DHT22;10200;49.232;9.222;2023-03-26T04:06:25;8.20;99.90
20081;DHT22;10200;49.232;9.222;2023-03-26T04:08:51;8.20;99.90
20081;DHT22;10200;49.232;9.222;2023-03-26T04:11:17;8.20;99.90
20081;DHT22;10200;49.232;9.222;2023-03-26T04:13:43;8.20;99.90
20081;DHT22;10200;49.232;9.222;2023-03-26T04:16:09;8.20;99.90
20081;DHT22;10200;49.232;9.222;2023-03-26T04:18:35;8.20;99.90
20081;DHT22;10200;49.232;9.222;2023-03-26T04:21:05;8.20;99.90
20081;DHT22;10200;49.232;9.222;2023-03-26T04:23:32;8.30;99.90
20081;DHT22;10200;49.232;9.222;2023-03-26T04:26:01;8.20;99.90
20081;DHT22;10200;49.232;9.222;2023-03-26T04:31:00;8.20;99.90
20081;DHT22;10200;49.232;9.222;2023-03-26T04:33:31;8.10;99.90
20081;DHT22;10200;49.232;9.222;2023-03-26T04:35:57;8.10;99.90
20081;DHT22;10200;49.232;9.222;2023-03-26T04:38:33;8.20;99.90
20081;DHT22;10200;49.232;9.222;2023-03-26T04:41:02;8.20;99.90
20081;DHT22;10200;49.232;9.222;2023-03-26T04:43:27;8.20;99.90
20081;DHT22;10200;49.232;9.222;2023-03-26T04:45:54;8.20;99.90
20081;DHT22;10200;49.232;9.222;2023-03-26T04:48:20;8.20;99.90
20081;DHT22;10200;49.232;9.222;2023-03-26T04:50:47;8.20;99.90
20081;DHT22;10200;49.232;9.222;2023-03-26T04:53:15;8.20;99.90
20081;DHT22;10200;49.232;9.222;2023-03-26T04:55:52;8.20;99.90
20081;DHT22;10200;49.232;9.222;2023-03-26T04:58:20;8.10;99.90
20081;DHT22;10200;49.232;9.222;2023-03-26T05:00:46;8.10;99.90
20081;DHT22;10200;49.232;9.222;2023-03-26T05:03:12;8.10;99.90
20081;DHT22;10200;49.232;9.222;2023-03-26T05:05:38;8.10;99.90
20081;DHT22;10200;49.232;9.222;2023-03-26T05:08:05;8.10;99.90
20081;DHT22;10200;49.232;9.222;2023-03-26T05:10:31;8.10;99.90
20081;DHT22;10200;49.232;9.222;2023-03-26T05:12:56;8.20;99.90
20081;DHT22;10200;49.232;9.222;2023-03-26T05:15:22;8.20;99.90
20081;DHT22;10200;49.232;9.222;2023-03-26T05:17:48;8.20;99.90
20081;DHT22;10200;49.232;9.222;2023-03-26T05:20:23;8.20;99.90
20081;DHT22;10200;49.232;9.222;2023-03-26T05:22:49;8.20;99.90
20081;DHT22;10200;49.232;9.222;2023-03-26T05:25:16;8.20;99.90
20081;DHT22;10200;49.232;9.222;2023-03-26T05:27:42;8.20;99.90
20081;DHT22;10200;49.232;9.222;2023-03-26T05:30:09;8.20;99.90
20081;DHT22;10200;49.232;9.222;2023-03-26T05:32:37;8.20;99.90
20081;DHT22;10200;49.232;9.222;2023-03-26T05:35:04;8.20;99.90
20081;DHT22;10200;49.232;9.222;2023-03-26T05:37:31;8.20;99.90
20081;DHT22;10200;49.232;9.222;2023-03-26T05:39:58;8.20;99.90
20081;DHT22;10200;49.232;9.222;2023-03-26T05:42:24;8.30;99.90
20081;DHT22;10200;49.232;9.222;2023-03-26T05:44:50;8.30;99.90
20081;DHT22;10200;49.232;9.222;2023-03-26T05:47:16;8.40;99.90
20081;DHT22;10200;49.232;9.222;2023-03-26T05:49:41;8.40;99.90
20081;DHT22;10200;49.232;9.222;2023-03-26T05:52:07;8.40;99.90
20081;DHT22;10200;49.232;9.222;2023-03-26T05:54:33;8.40;99.90
20081;DHT22;10200;49.232;9.222;2023-03-26T05:56:58;8.40;99.90
20081;DHT22;10200;49.232;9.222;2023-03-26T05:59:25;8.50;99.90
20081;DHT22;10200;49.232;9.222;2023-03-26T06:01:50;8.40;99.90
20081;DHT22;10200;49.232;9.222;2023-03-26T06:04:19;8.50;99.90
20081;DHT22;10200;49.232;9.222;2023-03-26T06:06:45;8.40;99.90
20081;DHT22;10200;49.232;9.222;2023-03-26T06:09:11;8.50;99.90
20081;DHT22;10200;49.232;9.222;2023-03-26T06:11:38;8.40;99.90
20081;DHT22;10200;49.232;9.222;2023-03-26T06:14:04;8.40;99.90
20081;DHT22;10200;49.232;9.222;2023-03-26T06:16:31;8.50;99.90
20081;DHT22;10200;49.232;9.222;2023-03-26T06:18:57;8.50;99.90
20081;DHT22;10200;49.232;9.222;2023-03-26T06:21:22;8.50;99.90
20081;DHT22;10200;49.232;9.222;2023-03-26T06:23:48;8.50;99.90
20081;DHT22;10200;49.232;9.222;2023-03-26T06:26:16;8.50;99.90
20081;DHT22;10200;49.232;9.222;2023-03-26T06:28:41;8.60;99.90
20081;DHT22;10200;49.232;9.222;2023-03-26T06:31:07;8.60;99.90
20081;DHT22;10200;49.232;9.222;2023-03-26T06:33:32;8.60;99.90
20081;DHT22;10200;49.232;9.222;2023-03-26T06:35:58;8.70;99.90
20081;DHT22;10200;49.232;9.222;2023-03-26T06:38:24;8.60;99.90
20081;DHT22;10200;49.232;9.222;2023-03-26T06:40:50;8.70;99.90
20081;DHT22;10200;49.232;9.222;2023-03-26T06:43:16;8.70;99.90
20081;DHT22;10200;49.232;9.222;2023-03-26T06:45:41;8.70;99.90
20081;DHT22;10200;49.232;9.222;2023-03-26T06:48:07;8.70;99.90
20081;DHT22;10200;49.232;9.222;2023-03-26T06:50:33;8.80;99.90
20081;DHT22;10200;49.232;9.222;2023-03-26T06:52:59;8.80;99.90
20081;DHT22;10200;49.232;9.222;2023-03-26T06:55:24;8.80;99.90
20081;DHT22;10200;49.232;9.222;2023-03-26T06:57:51;8.80;99.90
20081;DHT22;10200;49.232;9.222;2023-03-26T07:00:18;8.80;99.90
20081;DHT22;10200;49.232;9.222;2023-03-26T07:02:44;8.80;99.90
20081;DHT22;10200;49.232;9.222;2023-03-26T07:05:10;8.90;99.90
20081;DHT22;10200;49.232;9.222;2023-03-26T07:07:35;8.90;99.90
20081;DHT22;10200;49.232;9.222;2023-03-26T07:10:02;8.90;99.90
20081;DHT22;10200;49.232;9.222;2023-03-26T07:12:28;8.90;99.90
20081;DHT22;10200;49.232;9.222;2023-03-26T07:14:53;9.00;99.90
20081;DHT22;10200;49.232;9.222;2023-03-26T07:17:19;9.00;99.90
20081;DHT22;10200;49.232;9.222;2023-03-26T07:19:45;9.10;99.90
20081;DHT22;10200;49.232;9.222;2023-03-26T07:22:19;9.10;99.90
20081;DHT22;10200;49.232;9.222;2023-03-26T07:24:45;9.20;99.90
20081;DHT22;10200;49.232;9.222;2023-03-26T07:27:39;9.30;99.90
20081;DHT22;10200;49.232;9.222;2023-03-26T07:30:11;9.40;99.90
20081;DHT22;10200;49.232;9.222;2023-03-26T07:46:01;9.60;99.90
20081;DHT22;10200;49.232;9.222;2023-03-26T07:48:36;9.60;99.90
20081;DHT22;10200;49.232;9.222;2023-03-26T07:51:05;9.60;99.90
20081;DHT22;10200;49.232;9.222;2023-03-26T07:53:31;9.60;99.90
20081;DHT22;10200;49.232;9.222;2023-03-26T07:56:13;9.60;99.90
20081;DHT22;10200;49.232;9.222;2023-03-26T08:05:33;9.70;99.90
20081;DHT22;10200;49.232;9.222;2023-03-26T08:08:02;9.80;99.90
20081;DHT22;10200;49.232;9.222;2023-03-26T08:21:27;9.70;99.90
20081;DHT22;10200;49.232;9.222;2023-03-26T08:32:04;9.50;99.90
20081;DHT22;10200;49.232;9.222;2023-03-26T08:34:33;9.50;99.90
20081;DHT22;10200;49.232;9.222;2023-03-26T08:36:59;9.40;99.90
20081;DHT22;10200;49.232;9.222;2023-03-26T08:39:25;9.40;99.90
20081;DHT22;10200;49.232;9.222;2023-03-26T08:58:38;9.80;99.90
20081;DHT22;10200;49.232;9.222;2023-03-26T09:01:37;9.90;99.90
20081;DHT22;10200;49.232;9.222;2023-03-26T09:09:48;10.00;99.90
20081;DHT22;10200;49.232;9.222;2023-03-26T09:34:26;9.80;99.90
20081;DHT22;10200;49.232;9.222;2023-03-26T10:03:58;10.40;99.90
20081;DHT22;10200;49.232;9.222;2023-03-26T10:20:54;10.70;99.90
20081;DHT22;10200;49.232;9.222;2023-03-26T10:23:35;10.80;99.90
20081;DHT22;10200;49.232;9.222;2023-03-26T10:29:21;11.00;99.90
20081;DHT22;10200;49.232;9.222;2023-03-26T10:37:07;10.90;99.90
20081;DHT22;10200;49.232;9.222;2023-03-26T10:51:22;11.90;99.90
20081;DHT22;10200;49.232;9.222;2023-03-26T10:54:02;12.30;99.90
20081;DHT22;10200;49.232;9.222;2023-03-26T10:56:46;12.50;99.90
20081;DHT22;10200;49.232;9.222;2023-03-26T10:59:16;12.70;99.90
20081;DHT22;10200;49.232;9.222;2023-03-26T11:02:19;12.90;99.90
20081;DHT22;10200;49.232;9.222;2023-03-26T11:05:13;13.00;99.90
20081;DHT22;10200;49.232;9.222;2023-03-26T11:10:41;13.30;99.90
20081;DHT22;10200;49.232;9.222;2023-03-26T11:13:23;13.30;99.90
20081;DHT22;10200;49.232;9.222;2023-03-26T11:16:00;13.40;99.90
20081;DHT22;10200;49.232;9.222;2023-03-26T11:18:39;13.40;99.90
20081;DHT22;10200;49.232;9.222;2023-03-26T11:34:36;13.30;99.90
20081;DHT22;10200;49.232;9.222;2023-03-26T11:37:10;13.40;99.90
20081;DHT22;10200;49.232;9.222;2023-03-26T11:39:49;13.50;99.90
20081;DHT22;10200;49.232;9.222;2023-03-26T11:42:18;13.60;99.90
20081;DHT22;10200;49.232;9.222;2023-03-26T11:47:20;13.50;99.90
20081;DHT22;10200;49.232;9.222;2023-03-26T11:49:49;13.40;99.90
20081;DHT22;10200;49.232;9.222;2023-03-26T11:52:16;13.30;99.90
20081;DHT22;10200;49.232;9.222;2023-03-26T11:54:42;13.40;99.90
20081;DHT22;10200;49.232;9.222;2023-03-26T11:57:24;13.50;99.90
20081;DHT22;10200;49.232;9.222;2023-03-26T11:59:53;13.60;99.90
20081;DHT22;10200;49.232;9.222;2023-03-26T12:02:29;13.70;99.90
20081;DHT22;10200;49.232;9.222;2023-03-26T12:05:19;13.50;99.90
20081;DHT22;10200;49.232;9.222;2023-03-26T12:10:36;13.70;99.40
20081;DHT22;10200;49.232;9.222;2023-03-26T12:15:46;14.20;96.00
20081;DHT22;10200;49.232;9.222;2023-03-26T12:18:38;14.30;94.50
20081;DHT22;10200;49.232;9.222;2023-03-26T12:21:14;14.50;92.40
20081;DHT22;10200;49.232;9.222;2023-03-26T12:26:43;14.40;85.30
20081;DHT22;10200;49.232;9.222;2023-03-26T12:29:15;14.40;81.60
20081;DHT22;10200;49.232;9.222;2023-03-26T12:31:56;14.40;79.60
20081;DHT22;10200;49.232;9.222;2023-03-26T12:34:30;14.40;76.10
20081;DHT22;10200;49.232;9.222;2023-03-26T12:36:59;14.40;76.10
20081;DHT22;10200;49.232;9.222;2023-03-26T12:39:38;14.50;74.90
20081;DHT22;10200;49.232;9.222;2023-03-26T12:42:32;14.40;72.70
20081;DHT22;10200;49.232;9.222;2023-03-26T12:44:57;14.50;73.10
20081;DHT22;10200;49.232;9.222;2023-03-26T12:47:29;14.60;72.90
20081;DHT22;10200;49.232;9.222;2023-03-26T12:49:57;14.80;74.00
20081;DHT22;10200;49.232;9.222;2023-03-26T13:00:42;15.00;69.40
20081;DHT22;10200;49.232;9.222;2023-03-26T13:06:19;14.90;68.20
20081;DHT22;10200;49.232;9.222;2023-03-26T13:14:37;14.80;68.20
20081;DHT22;10200;49.232;9.222;2023-03-26T13:17:20;14.90;68.90
20081;DHT22;10200;49.232;9.222;2023-03-26T13:19:51;15.00;68.10
20081;DHT22;10200;49.232;9.222;2023-03-26T13:28:02;14.70;66.90
20081;DHT22;10200;49.232;9.222;2023-03-26T13:33:27;14.60;68.60
20081;DHT22;10200;49.232;9.222;2023-03-26T13:41:44;15.10;67.50
20081;DHT22;10200;49.232;9.222;2023-03-26T13:47:11;15.40;67.30
20081;DHT22;10200;49.232;9.222;2023-03-26T13:49:43;15.50;65.70
20081;DHT22;10200;49.232;9.222;2023-03-26T13:52:57;15.60;65.70
20081;DHT22;10200;49.232;9.222;2023-03-26T13:55:38;15.60;65.50
20081;DHT22;10200;49.232;9.222;2023-03-26T14:00:49;15.50;65.90
20081;DHT22;10200;49.232;9.222;2023-03-26T14:03:40;15.50;66.40
20081;DHT22;10200;49.232;9.222;2023-03-26T14:06:23;15.60;65.40
20081;DHT22;10200;49.232;9.222;2023-03-26T14:08:57;15.40;63.80
20081;DHT22;10200;49.232;9.222;2023-03-26T14:14:32;15.10;64.90
20081;DHT22;10200;49.232;9.222;2023-03-26T14:22:41;15.00;65.70
20081;DHT22;10200;49.232;9.222;2023-03-26T14:41:50;14.80;66.70
20081;DHT22;10200;49.232;9.222;2023-03-26T14:47:22;14.80;67.20
20081;DHT22;10200;49.232;9.222;2023-03-26T14:52:48;14.70;67.20
20081;DHT22;10200;49.232;9.222;2023-03-26T15:01:20;14.30;67.40
20081;DHT22;10200;49.232;9.222;2023-03-26T15:07:15;14.00;70.40
20081;DHT22;10200;49.232;9.222;2023-03-26T15:10:16;13.80;71.10
20081;DHT22;10200;49.232;9.222;2023-03-26T15:40:46;11.80;94.40
20081;DHT22;10200;49.232;9.222;2023-03-26T15:43:16;11.60;96.50
20081;DHT22;10200;49.232;9.222;2023-03-26T15:56:24;10.90;99.90
20081;DHT22;10200;49.232;9.222;2023-03-26T16:15:55;10.50;99.90
20081;DHT22;10200;49.232;9.222;2023-03-26T16:18:41;10.40;99.90
20081;DHT22;10200;49.232;9.222;2023-03-26T16:29:05;10.20;99.90
20081;DHT22;10200;49.232;9.222;2023-03-26T16:40:31;10.10;99.90
20081;DHT22;10200;49.232;9.222;2023-03-26T16:48:53;10.20;99.90
20081;DHT22;10200;49.232;9.222;2023-03-26T16:51:35;10.20;99.90
20081;DHT22;10200;49.232;9.222;2023-03-26T17:02:33;10.10;99.90
20081;DHT22;10200;49.232;9.222;2023-03-26T17:05:18;10.10;99.90
20081;DHT22;10200;49.232;9.222;2023-03-26T17:10:57;10.00;99.90
20081;DHT22;10200;49.232;9.222;2023-03-26T17:16:22;10.00;99.90
20081;DHT22;10200;49.232;9.222;2023-03-26T17:18:56;10.00;99.90
20081;DHT22;10200;49.232;9.222;2023-03-26T17:24:41;10.00;99.90
20081;DHT22;10200;49.232;9.222;2023-03-26T17:27:33;9.90;99.90
20081;DHT22;10200;49.232;9.222;2023-03-26T17:35:43;9.80;99.90
20081;DHT22;10200;49.232;9.222;2023-03-26T17:40:59;9.80;99.90
20081;DHT22;10200;49.232;9.222;2023-03-26T17:43:51;9.80;99.90
20081;DHT22;10200;49.232;9.222;2023-03-26T17:46:40;9.80;99.90
20081;DHT22;10200;49.232;9.222;2023-03-26T17:49:20;9.70;99.90
20081;DHT22;10200;49.232;9.222;2023-03-26T17:51:53;9.80;99.90
20081;DHT22;10200;49.232;9.222;2023-03-26T17:54:33;9.70;99.90
20081;DHT22;10200;49.232;9.222;2023-03-26T17:57:15;9.70;99.90
20081;DHT22;10200;49.232;9.222;2023-03-26T17:59:44;9.70;99.90
20081;DHT22;10200;49.232;9.222;2023-03-26T18:02:19;9.70;99.90
20081;DHT22;10200;49.232;9.222;2023-03-26T18:04:50;9.60;99.90
20081;DHT22;10200;49.232;9.222;2023-03-26T18:18:58;9.60;99.90
20081;DHT22;10200;49.232;9.222;2023-03-26T18:21:36;9.60;99.90
20081;DHT22;10200;49.232;9.222;2023-03-26T18:24:04;9.60;99.90
20081;DHT22;10200;49.232;9.222;2023-03-26T18:26:36;9.60;99.90
20081;DHT22;10200;49.232;9.222;2023-03-26T18:34:23;9.40;99.90
20081;DHT22;10200;49.232;9.222;2023-03-26T18:39:27;9.30;99.90
20081;DHT22;10200;49.232;9.222;2023-03-26T18:41:52;9.30;99.90
20081;DHT22;10200;49.232;9.222;2023-03-26T18:44:18;9.30;99.90
20081;DHT22;10200;49.232;9.222;2023-03-26T18:46:44;9.30;99.90
20081;DHT22;10200;49.232;9.222;2023-03-26T18:49:14;9.30;99.90
20081;DHT22;10200;49.232;9.222;2023-03-26T18:51:44;9.30;99.90
20081;DHT22;10200;49.232;9.222;2023-03-26T18:54:18;9.30;99.90
20081;DHT22;10200;49.232;9.222;2023-03-26T18:56:48;9.30;99.90
20081;DHT22;10200;49.232;9.222;2023-03-26T18:59:31;9.40;99.90
20081;DHT22;10200;49.232;9.222;2023-03-26T19:02:02;9.40;99.90
20081;DHT22;10200;49.232;9.222;2023-03-26T19:04:30;9.40;99.90
20081;DHT22;10200;49.232;9.222;2023-03-26T19:06:59;9.40;99.90
20081;DHT22;10200;49.232;9.222;2023-03-26T19:09:28;9.40;99.90
20081;DHT22;10200;49.232;9.222;2023-03-26T19:12:02;9.40;99.90
20081;DHT22;10200;49.232;9.222;2023-03-26T19:14:29;9.40;99.90
20081;DHT22;10200;49.232;9.222;2023-03-26T19:17:02;9.40;99.90
20081;DHT22;10200;49.232;9.222;2023-03-26T19:19:34;9.50;99.90
20081;DHT22;10200;49.232;9.222;2023-03-26T19:22:03;9.50;99.90
20081;DHT22;10200;49.232;9.222;2023-03-26T19:24:29;9.50;99.90
20081;DHT22;10200;49.232;9.222;2023-03-26T19:26:56;9.50;99.90
20081;DHT22;10200;49.232;9.222;2023-03-26T19:29:27;9.40;99.90
20081;DHT22;10200;49.232;9.222;2023-03-26T19:32:04;9.40;99.90
20081;DHT22;10200;49.232;9.222;2023-03-26T19:34:33;9.40;99.90
20081;DHT22;10200;49.232;9.222;2023-03-26T19:37:13;9.30;99.90
20081;DHT22;10200;49.232;9.222;2023-03-26T19:39:43;9.30;99.90
20081;DHT22;10200;49.232;9.222;2023-03-26T19:42:27;9.30;99.90
20081;DHT22;10200;49.232;9.222;2023-03-26T19:44:59;9.30;99.90
20081;DHT22;10200;49.232;9.222;2023-03-26T19:47:40;9.20;99.90
20081;DHT22;10200;49.232;9.222;2023-03-26T19:55:29;9.10;99.90
20081;DHT22;10200;49.232;9.222;2023-03-26T19:57:55;9.10;99.90
20081;DHT22;10200;49.232;9.222;2023-03-26T20:00:20;9.20;99.90
20081;DHT22;10200;49.232;9.222;2023-03-26T20:02:46;9.20;99.90
20081;DHT22;10200;49.232;9.222;2023-03-26T20:05:22;9.10;99.90
20081;DHT22;10200;49.232;9.222;2023-03-26T20:07:48;9.20;99.90
20081;DHT22;10200;49.232;9.222;2023-03-26T20:10:15;9.10;99.90
20081;DHT22;10200;49.232;9.222;2023-03-26T20:12:41;9.10;99.90
20081;DHT22;10200;49.232;9.222;2023-03-26T20:15:22;9.10;99.90
20081;DHT22;10200;49.232;9.222;2023-03-26T20:17:48;9.10;99.90
20081;DHT22;10200;49.232;9.222;2023-03-26T20:20:22;9.10;99.90
20081;DHT22;10200;49.232;9.222;2023-03-26T20:22:55;9.10;99.90
20081;DHT22;10200;49.232;9.222;2023-03-26T20:25:32;9.10;99.90
20081;DHT22;10200;49.232;9.222;2023-03-26T20:27:58;9.10;99.90
20081;DHT22;10200;49.232;9.222;2023-03-26T20:30:24;9.10;99.90
20081;DHT22;10200;49.232;9.222;2023-03-26T20:32:50;9.10;99.90
20081;DHT22;10200;49.232;9.222;2023-03-26T20:35:23;9.10;99.90
20081;DHT22;10200;49.232;9.222;2023-03-26T20:37:49;9.10;99.90
20081;DHT22;10200;49.232;9.222;2023-03-26T20:40:15;9.10;99.90
20081;DHT22;10200;49.232;9.222;2023-03-26T20:42:42;9.10;99.90
20081;DHT22;10200;49.232;9.222;2023-03-26T20:45:20;9.10;99.90
20081;DHT22;10200;49.232;9.222;2023-03-26T20:47:48;9.10;99.90
20081;DHT22;10200;49.232;9.222;2023-03-26T20:50:15;9.10;99.90
20081;DHT22;10200;49.232;9.222;2023-03-26T20:52:42;9.10;99.90
20081;DHT22;10200;49.232;9.222;2023-03-26T20:55:19;9.00;99.90
20081;DHT22;10200;49.232;9.222;2023-03-26T20:57:49;9.00;99.90
20081;DHT22;10200;49.232;9.222;2023-03-26T21:00:16;8.90;99.90
20081;DHT22;10200;49.232;9.222;2023-03-26T21:02:42;8.90;99.90
20081;DHT22;10200;49.232;9.222;2023-03-26T21:05:09;8.90;99.90
20081;DHT22;10200;49.232;9.222;2023-03-26T21:07:42;8.90;99.90
20081;DHT22;10200;49.232;9.222;2023-03-26T21:10:11;8.80;99.90
20081;DHT22;10200;49.232;9.222;2023-03-26T21:12:43;8.80;99.90
20081;DHT22;10200;49.232;9.222;2023-03-26T21:15:10;8.80;99.90
20081;DHT22;10200;49.232;9.222;2023-03-26T21:17:38;8.80;99.90
20081;DHT22;10200;49.232;9.222;2023-03-26T21:20:04;8.80;99.90
20081;DHT22;10200;49.232;9.222;2023-03-26T21:25:40;8.80;99.90
20081;DHT22;10200;49.232;9.222;2023-03-26T21:28:11;8.90;99.90
20081;DHT22;10200;49.232;9.222;2023-03-26T21:30:38;8.80;99.90
20081;DHT22;10200;49.232;9.222;2023-03-26T21:33:04;8.80;99.90
20081;DHT22;10200;49.232;9.222;2023-03-26T21:35:30;8.80;99.90
20081;DHT22;10200;49.232;9.222;2023-03-26T21:37:56;8.80;99.90
20081;DHT22;10200;49.232;9.222;2023-03-26T21:40:22;8.80;99.90
20081;DHT22;10200;49.232;9.222;2023-03-26T21:42:50;8.80;99.90
20081;DHT22;10200;49.232;9.222;2023-03-26T21:45:17;8.80;99.90
20081;DHT22;10200;49.232;9.222;2023-03-26T21:47:43;8.80;99.90
20081;DHT22;10200;49.232;9.222;2023-03-26T21:50:12;8.80;99.90
20081;DHT22;10200;49.232;9.222;2023-03-26T21:52:38;8.70;99.90
20081;DHT22;10200;49.232;9.222;2023-03-26T21:55:17;8.70;99.90
20081;DHT22;10200;49.232;9.222;2023-03-26T22:00:38;8.70;99.90
20081;DHT22;10200;49.232;9.222;2023-03-26T22:06:14;8.70;99.90
20081;DHT22;10200;49.232;9.222;2023-03-26T22:08:41;8.70;99.90
20081;DHT22;10200;49.232;9.222;2023-03-26T22:11:09;8.60;99.90
20081;DHT22;10200;49.232;9.222;2023-03-26T22:13:35;8.60;99.90
20081;DHT22;10200;49.232;9.222;2023-03-26T22:16:03;8.70;99.90
20081;DHT22;10200;49.232;9.222;2023-03-26T22:18:29;8.80;99.90
20081;DHT22;10200;49.232;9.222;2023-03-26T22:20:56;8.80;99.90
20081;DHT22;10200;49.232;9.222;2023-03-26T22:23:22;8.80;99.90
20081;DHT22;10200;49.232;9.222;2023-03-26T22:25:48;8.80;99.90
20081;DHT22;10200;49.232;9.222;2023-03-26T22:28:14;8.80;99.90
20081;DHT22;10200;49.232;9.222;2023-03-26T22:30:40;8.80;99.90
20081;DHT22;10200;49.232;9.222;2023-03-26T22:33:06;8.80;99.90
20081;DHT22;10200;49.232;9.222;2023-03-26T22:35:40;8.80;99.90
20081;DHT22;10200;49.232;9.222;2023-03-26T22:38:07;8.80;99.90
20081;DHT22;10200;49.232;9.222;2023-03-26T22:40:34;8.70;99.90
20081;DHT22;10200;49.232;9.222;2023-03-26T22:42:59;8.90;99.90
20081;DHT22;10200;49.232;9.222;2023-03-26T22:45:25;8.80;99.90
20081;DHT22;10200;49.232;9.222;2023-03-26T22:47:52;8.80;99.90
20081;DHT22;10200;49.232;9.222;2023-03-26T22:50:18;8.80;99.90
20081;DHT22;10200;49.232;9.222;2023-03-26T22:52:44;8.80;99.90
20081;DHT22;10200;49.232;9.222;2023-03-26T22:55:10;8.80;99.90
20081;DHT22;10200;49.232;9.222;2023-03-26T22:57:36;8.80;99.90